Time;durP1;ratioP1;P1;durP2;ratioP2;P2;SDS_P1;SDS_P2;PMS_P1;PMS_P2;Temp;Humidity;BMP_temperature;BMP_pressure;BME280_temperature;BME280_humidity;BME280_pressure;Samples;Min_cycle;Max_cycle;Signal;HPM_P1;HPM_P2
2022/03/12 00:01:33;;;;;;;4.30;2.42;;;19.00;42.80;;;;;;6195422;28;20030;-70
2022/03/12 00:04:34;;;;;;;3.85;2.55;;;19.00;42.80;;;;;;6195031;28;20026;-70
2022/03/12 00:07:42;;;;;;;6.82;2.65;;;19.00;42.80;;;;;;6195364;28;20069;-70
2022/03/12 00:10:43;;;;;;;5.60;2.67;;;19.00;42.80;;;;;;6195320;28;20038;-70
2022/03/12 00:13:45;;;;;;;4.15;2.58;;;19.00;42.80;;;;;;6195034;28;20042;-70
2022/03/12 00:16:47;;;;;;;4.07;2.40;;;19.00;42.80;;;;;;6194968;28;20536;-70
2022/03/12 00:19:47;;;;;;;4.85;2.90;;;19.00;42.80;;;;;;6194672;28;20094;-70
2022/03/12 00:22:51;;;;;;;3.80;2.55;;;19.00;42.80;;;;;;6194835;28;20038;-70
2022/03/12 00:25:52;;;;;;;5.20;2.70;;;19.00;42.80;;;;;;6159218;28;1046554;-70
2022/03/12 00:28:54;;;;;;;5.50;2.60;;;19.00;42.90;;;;;;6196592;28;20049;-70
2022/03/12 00:31:54;;;;;;;4.05;2.78;;;19.00;42.90;;;;;;6195471;28;20049;-70
2022/03/12 00:34:55;;;;;;;4.25;2.72;;;19.00;42.90;;;;;;6195942;28;20034;-70
2022/03/12 00:37:55;;;;;;;4.80;2.83;;;19.00;42.90;;;;;;6195863;28;20034;-70
2022/03/12 00:40:56;;;;;;;3.42;2.30;;;19.00;42.80;;;;;;6195724;28;20029;-70
2022/03/12 00:43:57;;;;;;;4.50;2.20;;;19.00;43.00;;;;;;6195529;28;20022;-70
2022/03/12 00:46:57;;;;;;;3.67;2.45;;;19.00;42.90;;;;;;6195601;28;20389;-70
2022/03/12 00:49:58;;;;;;;3.97;2.55;;;19.00;43.00;;;;;;6195267;28;20494;-70
2022/03/12 00:52:59;;;;;;;4.07;2.42;;;19.00;43.00;;;;;;6195070;28;20092;-70
2022/03/12 00:55:59;;;;;;;4.28;2.45;;;19.00;43.00;;;;;;6194463;28;20498;-70
2022/03/12 00:59:00;;;;;;;4.20;2.78;;;19.00;43.00;;;;;;6195025;28;20030;-71
2022/03/12 01:02:00;;;;;;;4.72;2.67;;;19.00;42.90;;;;;;6195251;28;20041;-71
2022/03/12 01:05:01;;;;;;;4.63;2.50;;;19.00;42.70;;;;;;6195328;28;20571;-70
2022/03/12 01:08:01;;;;;;;3.60;2.22;;;19.00;42.90;;;;;;6195116;28;20030;-70
2022/03/12 01:11:06;;;;;;;3.80;2.50;;;19.00;43.00;;;;;;6194898;28;20037;-70
2022/03/12 01:14:07;;;;;;;3.35;2.40;;;19.00;42.90;;;;;;6194935;28;20205;-70
2022/03/12 01:17:07;;;;;;;3.95;2.38;;;19.00;43.10;;;;;;6194904;28;20027;-70
2022/03/12 01:20:10;;;;;;;4.72;2.70;;;19.00;43.00;;;;;;6194767;28;20062;-70
2022/03/12 01:23:16;;;;;;;3.90;2.40;;;19.00;43.00;;;;;;6196942;28;20490;-70
2022/03/12 01:26:18;;;;;;;5.38;2.70;;;19.00;43.00;;;;;;6194403;28;20050;-70
2022/03/12 01:29:18;;;;;;;4.20;2.42;;;19.00;43.00;;;;;;6194077;28;20076;-70
2022/03/12 01:32:19;;;;;;;3.88;2.65;;;19.00;43.00;;;;;;6194581;28;20490;-70
2022/03/12 01:35:20;;;;;;;4.63;2.63;;;19.00;43.00;;;;;;6194739;28;20121;-70
2022/03/12 01:38:34;;;;;;;4.55;2.72;;;19.00;43.10;;;;;;6194261;28;20026;-70
2022/03/12 01:41:40;;;;;;;4.18;2.60;;;19.00;43.10;;;;;;6194095;28;20061;-70
2022/03/12 01:44:42;;;;;;;4.10;2.38;;;19.00;43.10;;;;;;6170105;28;20038;-70
2022/03/12 01:47:42;;;;;;;4.70;2.80;;;19.00;43.10;;;;;;6170427;28;20103;-70
2022/03/12 01:50:43;;;;;;;4.13;2.80;;;19.00;43.10;;;;;;6171413;28;20055;-70
2022/03/12 01:53:43;;;;;;;4.22;2.47;;;19.00;43.10;;;;;;6193896;28;20106;-70
2022/03/12 01:56:45;;;;;;;4.47;2.70;;;19.00;43.10;;;;;;6193894;28;20041;-70
2022/03/12 01:59:45;;;;;;;5.28;3.00;;;19.00;43.10;;;;;;6193959;28;20058;-70
2022/03/12 02:02:50;;;;;;;3.85;2.42;;;19.00;43.10;;;;;;6194236;28;20420;-70
2022/03/12 02:05:51;;;;;;;4.80;2.90;;;19.00;43.10;;;;;;6193921;28;20370;-70
2022/03/12 02:08:57;;;;;;;4.45;2.70;;;19.00;43.10;;;;;;6194027;28;20033;-70
2022/03/12 02:11:58;;;;;;;5.30;2.90;;;19.00;43.00;;;;;;6193965;28;20470;-70
2022/03/12 02:15:00;;;;;;;4.28;2.70;;;19.00;43.10;;;;;;6193564;28;20030;-70
2022/03/12 02:18:01;;;;;;;4.45;2.65;;;19.00;43.10;;;;;;6194202;28;20037;-70
2022/03/12 02:21:02;;;;;;;3.40;2.40;;;19.00;43.10;;;;;;6193719;28;20034;-70
2022/03/12 02:24:05;;;;;;;5.70;3.03;;;19.00;43.00;;;;;;6193551;28;20157;-70
2022/03/12 02:27:10;;;;;;;3.60;2.40;;;19.00;43.00;;;;;;6193282;28;20409;-70
2022/03/12 02:30:12;;;;;;;3.90;2.67;;;19.00;43.10;;;;;;6193726;28;20076;-70
2022/03/12 02:33:13;;;;;;;3.80;2.30;;;19.00;43.10;;;;;;6193438;28;20041;-70
2022/03/12 02:36:20;;;;;;;4.13;2.50;;;19.00;43.10;;;;;;6193208;28;20037;-70
2022/03/12 02:39:21;;;;;;;4.20;2.50;;;19.00;43.10;;;;;;6193395;28;20034;-70
2022/03/12 02:42:24;;;;;;;4.15;2.80;;;19.00;43.10;;;;;;6193538;28;20114;-70
2022/03/12 02:45:27;;;;;;;4.03;2.38;;;19.00;43.10;;;;;;6193343;28;20137;-70
2022/03/12 02:48:28;;;;;;;3.90;2.72;;;19.00;43.10;;;;;;6193543;28;20040;-70
2022/03/12 02:51:28;;;;;;;4.10;2.70;;;19.00;43.10;;;;;;6193248;28;20069;-70
2022/03/12 02:54:29;;;;;;;4.53;2.60;;;19.00;43.10;;;;;;6193277;28;20031;-70
2022/03/12 02:57:30;;;;;;;5.38;2.83;;;19.00;43.10;;;;;;6193448;28;20038;-70
2022/03/12 03:00:31;;;;;;;4.60;2.47;;;19.00;43.20;;;;;;6193141;28;20018;-70
2022/03/12 03:03:35;;;;;;;4.88;2.88;;;19.00;43.10;;;;;;6193103;28;20548;-70
2022/03/12 03:06:36;;;;;;;4.77;2.40;;;19.00;43.10;;;;;;6193549;28;20054;-70
2022/03/12 03:09:37;;;;;;;4.22;2.55;;;19.00;43.10;;;;;;6193476;28;20045;-70
2022/03/12 03:12:38;;;;;;;4.28;2.42;;;19.00;43.10;;;;;;6193305;28;20021;-70
2022/03/12 03:15:39;;;;;;;4.60;2.70;;;19.00;43.10;;;;;;6191927;28;20066;-70
2022/03/12 03:18:40;;;;;;;4.43;2.85;;;19.00;43.10;;;;;;6196090;28;20026;-70
2022/03/12 03:21:41;;;;;;;3.75;2.50;;;19.00;43.10;;;;;;6197944;28;20432;-70
2022/03/12 03:24:41;;;;;;;5.00;2.85;;;19.00;43.20;;;;;;6197227;28;20022;-70
2022/03/12 03:27:42;;;;;;;5.32;2.83;;;18.90;43.70;;;;;;6197261;28;20440;-71
2022/03/12 03:30:43;;;;;;;3.85;2.42;;;19.00;43.00;;;;;;6197295;28;20068;-70
2022/03/12 03:33:44;;;;;;;4.65;2.75;;;19.00;43.10;;;;;;6197268;28;20102;-70
2022/03/12 03:36:45;;;;;;;4.25;2.83;;;19.00;43.10;;;;;;6197350;28;20049;-71
2022/03/12 03:39:45;;;;;;;5.22;2.92;;;19.00;43.10;;;;;;6197321;28;20098;-70
2022/03/12 03:42:47;;;;;;;3.65;2.40;;;18.90;43.10;;;;;;6196921;28;20018;-70
2022/03/12 03:45:51;;;;;;;4.93;2.58;;;19.00;43.20;;;;;;6196925;28;20033;-70
2022/03/12 03:48:52;;;;;;;5.18;2.75;;;19.00;43.20;;;;;;6196872;28;20026;-71
2022/03/12 03:51:56;;;;;;;4.25;2.70;;;19.00;43.10;;;;;;6197144;28;20037;-70
2022/03/12 03:54:56;;;;;;;5.15;3.05;;;19.00;43.10;;;;;;6197017;28;20082;-70
2022/03/12 03:57:59;;;;;;;6.13;2.70;;;19.00;43.10;;;;;;6197032;28;20427;-70
2022/03/12 04:01:02;;;;;;;5.32;3.17;;;19.00;43.20;;;;;;6197087;28;20033;-70
2022/03/12 04:04:02;;;;;;;4.07;2.63;;;19.00;43.20;;;;;;6196545;28;20498;-70
2022/03/12 04:07:05;;;;;;;4.75;2.92;;;18.90;43.10;;;;;;6196672;28;20102;-70
2022/03/12 04:10:05;;;;;;;5.13;2.92;;;18.90;43.10;;;;;;6195699;28;20026;-70
2022/03/12 04:13:19;;;;;;;4.45;2.80;;;19.00;43.20;;;;;;6196225;28;20501;-70
2022/03/12 04:16:20;;;;;;;4.78;2.53;;;19.00;43.10;;;;;;6196062;28;20137;-70
2022/03/12 04:19:21;;;;;;;4.03;2.72;;;19.00;43.20;;;;;;6196180;28;20077;-70
2022/03/12 04:22:22;;;;;;;5.97;2.92;;;18.90;43.10;;;;;;6196658;28;20465;-70
2022/03/12 04:25:23;;;;;;;4.72;2.55;;;19.00;43.20;;;;;;6195580;28;20077;-70
2022/03/12 04:28:29;;;;;;;4.32;2.58;;;18.90;43.10;;;;;;6194683;28;20381;-70
2022/03/12 04:31:30;;;;;;;4.88;2.88;;;18.90;43.10;;;;;;6196059;28;20022;-70
2022/03/12 04:34:31;;;;;;;4.13;2.47;;;18.90;43.10;;;;;;6195974;28;20045;-70
2022/03/12 04:37:33;;;;;;;5.07;2.35;;;18.90;43.10;;;;;;6195885;28;20019;-70
2022/03/12 04:40:33;;;;;;;5.47;3.20;;;18.90;43.10;;;;;;6195421;28;20109;-70
2022/03/12 04:43:34;;;;;;;5.05;2.97;;;19.00;43.20;;;;;;6195765;28;20076;-70
2022/03/12 04:46:35;;;;;;;5.60;2.80;;;19.00;43.10;;;;;;6195438;28;20331;-70
2022/03/12 04:49:36;;;;;;;4.28;2.80;;;18.90;43.50;;;;;;6195753;28;20544;-70
2022/03/12 04:52:36;;;;;;;4.57;2.65;;;18.90;43.00;;;;;;6195027;28;20022;-70
2022/03/12 04:55:39;;;;;;;4.60;2.92;;;19.00;43.10;;;;;;6195199;28;20393;-71
2022/03/12 04:58:39;;;;;;;5.72;3.00;;;19.00;43.20;;;;;;6195398;28;20026;-70
2022/03/12 05:01:40;;;;;;;4.63;2.75;;;19.00;43.10;;;;;;6195385;28;20441;-70
2022/03/12 05:04:40;;;;;;;4.32;2.72;;;19.00;43.20;;;;;;6194952;28;20485;-70
2022/03/12 05:07:45;;;;;;;4.85;2.92;;;19.00;43.20;;;;;;6195298;28;20105;-70
2022/03/12 05:10:49;;;;;;;3.33;2.40;;;19.00;43.20;;;;;;6195008;28;20057;-70
2022/03/12 05:13:53;;;;;;;5.10;3.03;;;19.00;43.20;;;;;;6194953;28;20100;-70
2022/03/12 05:16:53;;;;;;;5.10;2.70;;;19.00;43.20;;;;;;6195264;28;20030;-70
2022/03/12 05:19:54;;;;;;;5.15;2.90;;;19.00;43.20;;;;;;6194225;28;20093;-70
2022/03/12 05:22:55;;;;;;;5.18;2.95;;;19.00;43.20;;;;;;6195235;28;20018;-71
2022/03/12 05:25:55;;;;;;;4.68;2.63;;;19.00;43.20;;;;;;6194345;28;20121;-70
2022/03/12 05:28:56;;;;;;;5.45;3.25;;;19.00;43.20;;;;;;6194426;28;20150;-70
2022/03/12 05:31:56;;;;;;;4.78;2.80;;;19.00;43.20;;;;;;6194439;28;20076;-70
2022/03/12 05:34:57;;;;;;;4.35;2.63;;;19.00;43.20;;;;;;6194579;28;20042;-70
2022/03/12 05:37:58;;;;;;;4.97;2.80;;;18.90;43.10;;;;;;6194406;28;20026;-70
2022/03/12 05:40:59;;;;;;;4.28;2.58;;;18.90;43.10;;;;;;6194039;28;20033;-70
2022/03/12 05:43:59;;;;;;;3.10;2.17;;;18.90;43.10;;;;;;6194000;28;20057;-70
2022/03/12 05:47:02;;;;;;;4.68;2.70;;;19.00;43.30;;;;;;6194493;28;20038;-70
2022/03/12 05:50:04;;;;;;;5.38;2.55;;;18.90;43.10;;;;;;6194203;28;20033;-70
2022/03/12 05:53:09;;;;;;;4.50;2.83;;;19.00;43.10;;;;;;6193860;28;20038;-70
2022/03/12 05:56:10;;;;;;;5.60;3.13;;;19.00;43.30;;;;;;6194385;28;20061;-70
2022/03/12 05:59:11;;;;;;;5.75;3.15;;;19.00;43.30;;;;;;6193981;28;20034;-70
2022/03/12 06:02:11;;;;;;;4.20;2.72;;;18.90;43.20;;;;;;6181806;28;20505;-70
2022/03/12 06:05:14;;;;;;;4.22;2.67;;;18.90;43.30;;;;;;6169942;28;20409;-70
2022/03/12 06:08:21;;;;;;;4.50;2.63;;;19.00;43.10;;;;;;6170015;28;20025;-70
2022/03/12 06:11:25;;;;;;;5.22;2.70;;;19.00;43.20;;;;;;6169788;28;20023;-71
2022/03/12 06:14:26;;;;;;;4.82;2.90;;;19.00;43.20;;;;;;6170365;28;20058;-70
2022/03/12 06:17:26;;;;;;;4.90;2.83;;;19.00;43.20;;;;;;6169659;28;20463;-70
2022/03/12 06:20:27;;;;;;;5.03;2.80;;;19.00;43.20;;;;;;6169578;28;20592;-70
2022/03/12 06:23:28;;;;;;;5.63;2.92;;;19.00;43.30;;;;;;6169210;28;20019;-71
2022/03/12 06:26:35;;;;;;;4.53;2.70;;;19.00;43.10;;;;;;6184852;28;20052;-70
2022/03/12 06:29:35;;;;;;;5.35;3.22;;;18.90;43.10;;;;;;6193362;28;20030;-70
2022/03/12 06:32:42;;;;;;;6.07;3.00;;;19.00;43.20;;;;;;6193440;28;20030;-70
2022/03/12 06:35:42;;;;;;;6.60;3.38;;;19.00;43.20;;;;;;6193573;28;20035;-70
2022/03/12 06:38:43;;;;;;;5.03;3.08;;;19.00;43.30;;;;;;6193393;28;20061;-70
2022/03/12 06:41:45;;;;;;;4.68;2.88;;;19.00;43.20;;;;;;6193382;28;20031;-70
2022/03/12 06:44:45;;;;;;;5.32;2.83;;;18.90;43.10;;;;;;6193358;28;20022;-70
2022/03/12 06:47:46;;;;;;;5.82;3.00;;;19.00;43.20;;;;;;6193274;28;20050;-70
2022/03/12 06:50:47;;;;;;;7.22;3.08;;;19.00;43.30;;;;;;6192798;28;20528;-70
2022/03/12 06:53:47;;;;;;;4.20;2.65;;;18.90;43.10;;;;;;6196845;28;20031;-70
2022/03/12 06:56:48;;;;;;;5.75;3.13;;;19.00;43.10;;;;;;6184009;28;20022;-70
2022/03/12 06:59:49;;;;;;;5.68;3.38;;;19.00;43.20;;;;;;6194754;28;20621;-70
2022/03/12 07:02:49;;;;;;;6.00;3.10;;;19.00;43.00;;;;;;6199918;28;20172;-70
2022/03/12 07:05:51;;;;;;;5.28;3.38;;;18.90;43.10;;;;;;6196928;28;20037;-70
2022/03/12 07:08:52;;;;;;;5.22;3.13;;;18.90;43.20;;;;;;6197538;28;20026;-71
2022/03/12 07:11:55;;;;;;;6.18;3.38;;;19.00;43.30;;;;;;6197213;28;20448;-70
2022/03/12 07:14:55;;;;;;;6.35;3.70;;;18.90;43.20;;;;;;6203081;28;20061;-70
2022/03/12 07:17:56;;;;;;;6.45;3.47;;;18.90;43.30;;;;;;6197177;28;20033;-70
2022/03/12 07:20:56;;;;;;;4.78;3.30;;;19.00;43.40;;;;;;6197457;28;20023;-70
2022/03/12 07:23:57;;;;;;;5.55;3.25;;;19.00;43.40;;;;;;6196459;28;20073;-70
2022/03/12 07:26:57;;;;;;;3.95;2.60;;;19.00;43.50;;;;;;6196495;28;20046;-70
2022/03/12 07:30:00;;;;;;;5.35;2.95;;;19.00;43.50;;;;;;6197399;28;20027;-70
2022/03/12 07:33:00;;;;;;;5.85;3.40;;;19.00;43.50;;;;;;6196975;28;20454;-70
2022/03/12 07:36:01;;;;;;;6.47;3.63;;;19.00;43.50;;;;;;6196683;28;20026;-71
2022/03/12 07:39:03;;;;;;;5.90;3.50;;;19.00;43.50;;;;;;6196991;28;20037;-70
2022/03/12 07:42:04;;;;;;;7.20;3.95;;;18.90;43.40;;;;;;6196673;28;20097;-70
2022/03/12 07:45:08;;;;;;;7.75;4.60;;;19.00;43.50;;;;;;6196305;28;20035;-72
2022/03/12 07:48:08;;;;;;;9.63;4.75;;;18.90;43.50;;;;;;6196197;28;20680;-70
2022/03/12 07:51:09;;;;;;;7.95;4.30;;;18.90;43.50;;;;;;6189018;28;20140;-70
2022/03/12 07:54:12;;;;;;;9.18;4.82;;;19.00;43.60;;;;;;6196023;28;20038;-70
2022/03/12 07:57:14;;;;;;;7.85;4.88;;;19.00;43.60;;;;;;6195623;28;20484;-70
2022/03/12 08:00:16;;;;;;;9.02;5.40;;;18.90;43.50;;;;;;6196679;28;20118;-70
2022/03/12 08:03:16;;;;;;;8.15;5.07;;;18.90;43.50;;;;;;6217937;28;20504;-70
2022/03/12 08:06:20;;;;;;;10.82;5.75;;;19.00;43.60;;;;;;6220325;28;20022;-70
2022/03/12 08:09:20;;;;;;;9.75;5.80;;;18.90;43.60;;;;;;6222481;28;20053;-70
2022/03/12 08:12:21;;;;;;;8.27;5.18;;;19.00;43.60;;;;;;6220311;28;20030;-70
2022/03/12 08:15:22;;;;;;;9.57;5.53;;;18.90;43.60;;;;;;6220281;28;20091;-70
2022/03/12 08:18:23;;;;;;;9.60;5.78;;;19.00;43.70;;;;;;6212637;28;20026;-70
2022/03/12 08:21:24;;;;;;;12.23;6.22;;;18.90;43.70;;;;;;6220398;28;20096;-70
2022/03/12 08:24:25;;;;;;;10.80;6.47;;;18.90;43.60;;;;;;6196540;28;20108;-70
2022/03/12 08:27:25;;;;;;;12.50;6.72;;;18.90;43.60;;;;;;6210347;28;20058;-70
2022/03/12 08:30:26;;;;;;;10.82;6.80;;;19.00;43.80;;;;;;6196175;28;20076;-70
2022/03/12 08:33:27;;;;;;;9.98;6.32;;;19.00;43.70;;;;;;6195322;28;20460;-70
2022/03/12 08:36:27;;;;;;;11.70;7.18;;;18.90;43.60;;;;;;6195265;28;20722;-70
2022/03/12 08:39:28;;;;;;;9.85;6.47;;;19.00;43.80;;;;;;6195117;28;20037;-70
2022/03/12 08:42:28;;;;;;;10.40;6.45;;;18.90;43.70;;;;;;6195201;28;20034;-70
2022/03/12 08:45:30;;;;;;;12.10;7.10;;;18.90;43.70;;;;;;6194709;28;20022;-70
2022/03/12 08:48:31;;;;;;;11.75;7.30;;;18.90;43.60;;;;;;6195164;28;20044;-70
2022/03/12 08:51:32;;;;;;;11.93;7.28;;;18.90;43.70;;;;;;6187623;28;20037;-70
2022/03/12 08:54:33;;;;;;;10.85;7.05;;;18.90;43.70;;;;;;6194847;28;20030;-70
2022/03/12 08:57:33;;;;;;;10.93;6.45;;;18.90;43.70;;;;;;6194904;28;20049;-70
2022/03/12 09:00:35;;;;;;;12.20;6.97;;;18.90;43.70;;;;;;6195532;28;20116;-70
2022/03/12 09:03:37;;;;;;;14.23;7.80;;;18.90;43.80;;;;;;6219819;28;20022;-70
2022/03/12 09:06:38;;;;;;;12.25;6.53;;;18.90;43.70;;;;;;6218549;28;20689;-70
2022/03/12 09:09:39;;;;;;;12.82;7.45;;;18.90;43.70;;;;;;6219113;28;20061;-70
2022/03/12 09:12:41;;;;;;;13.50;7.55;;;19.00;43.80;;;;;;6218903;28;20030;-70
2022/03/12 09:15:42;;;;;;;13.05;7.35;;;18.90;43.70;;;;;;6207395;28;20046;-70
2022/03/12 09:18:44;;;;;;;13.60;7.68;;;18.90;43.70;;;;;;6211603;28;20025;-70
2022/03/12 09:21:44;;;;;;;16.25;8.88;;;18.90;43.80;;;;;;6219298;28;20022;-70
2022/03/12 09:24:46;;;;;;;15.52;7.93;;;18.90;43.70;;;;;;6218627;28;20084;-70
2022/03/12 09:27:46;;;;;;;14.82;7.72;;;18.90;43.70;;;;;;6204765;28;20034;-70
2022/03/12 09:30:51;;;;;;;15.00;8.85;;;19.00;43.90;;;;;;6194712;28;20445;-70
2022/03/12 09:33:52;;;;;;;18.10;8.90;;;19.00;43.80;;;;;;6194486;28;20023;-70
2022/03/12 09:36:53;;;;;;;17.33;8.35;;;19.00;43.90;;;;;;6193909;28;20058;-69
2022/03/12 09:39:53;;;;;;;18.67;9.25;;;19.00;43.90;;;;;;6193768;28;20499;-70
2022/03/12 09:42:54;;;;;;;17.75;9.40;;;19.00;43.80;;;;;;6192956;28;20040;-70
2022/03/12 09:45:56;;;;;;;16.85;8.65;;;19.00;43.90;;;;;;6194074;28;20041;-70
2022/03/12 09:48:57;;;;;;;17.50;9.20;;;18.90;43.80;;;;;;6193942;28;20061;-70
2022/03/12 09:51:59;;;;;;;17.55;8.63;;;18.90;44.50;;;;;;6186473;28;20035;-70
2022/03/12 09:55:00;;;;;;;18.05;9.10;;;19.00;43.80;;;;;;6193280;28;20034;-70
2022/03/12 09:58:00;;;;;;;19.45;9.07;;;18.90;43.80;;;;;;6194217;28;20030;-70
2022/03/12 10:01:01;;;;;;;19.70;8.57;;;19.00;43.80;;;;;;6197809;28;20033;-70
2022/03/12 10:04:02;;;;;;;15.93;8.68;;;18.90;43.80;;;;;;6218296;28;20097;-70
2022/03/12 10:07:03;;;;;;;19.80;9.13;;;19.00;43.80;;;;;;6205033;28;20037;-70
2022/03/12 10:10:06;;;;;;;15.00;8.27;;;19.00;44.10;;;;;;6194069;28;20034;-70
2022/03/12 10:13:06;;;;;;;14.88;8.20;;;19.00;43.90;;;;;;6193448;28;20018;-70
2022/03/12 10:16:09;;;;;;;17.00;8.90;;;18.90;43.80;;;;;;6193127;28;20049;-70
2022/03/12 10:19:10;;;;;;;16.98;8.88;;;19.00;43.90;;;;;;6193134;28;20026;-70
2022/03/12 10:22:10;;;;;;;17.27;9.18;;;19.00;43.90;;;;;;6200537;28;20540;-70
2022/03/12 10:25:12;;;;;;;16.85;8.60;;;19.00;43.90;;;;;;6191782;28;20070;-70
2022/03/12 10:28:13;;;;;;;17.63;9.43;;;19.00;43.90;;;;;;6197368;28;20038;-71
2022/03/12 10:31:19;;;;;;;15.90;8.35;;;19.00;43.90;;;;;;6198241;28;20022;-70
2022/03/12 10:34:21;;;;;;;15.05;8.13;;;19.00;43.90;;;;;;6198036;28;20037;-70
2022/03/12 10:37:32;;;;;;;14.30;7.53;;;19.00;44.00;;;;;;6197902;28;20041;-70
2022/03/12 10:40:32;;;;;;;13.95;7.10;;;19.00;43.90;;;;;;6198183;28;20046;-70
2022/03/12 10:43:43;;;;;;;15.10;8.38;;;19.00;43.90;;;;;;6204532;28;20025;-70
2022/03/12 10:46:44;;;;;;;14.43;8.15;;;19.00;44.00;;;;;;6221915;28;20033;-70
2022/03/12 10:49:57;;;;;;;14.60;7.53;;;19.00;44.00;;;;;;6221120;28;20034;-70
2022/03/12 10:52:59;;;;;;;13.43;7.20;;;18.90;43.90;;;;;;6197421;28;20026;-70
2022/03/12 10:56:05;;;;;;;14.10;7.60;;;19.00;44.00;;;;;;6197930;28;20041;-70
2022/03/12 10:59:17;;;;;;;13.70;7.25;;;19.00;44.00;;;;;;6197556;28;20022;-70
2022/03/12 11:02:17;;;;;;;15.93;7.82;;;19.00;44.00;;;;;;6211715;28;20104;-70
2022/03/12 11:05:25;;;;;;;12.75;6.68;;;19.00;44.00;;;;;;6221704;28;20032;-70
2022/03/12 11:08:33;;;;;;;13.75;6.88;;;19.00;44.70;;;;;;6221710;28;20551;-70
2022/03/12 11:11:36;;;;;;;12.25;6.80;;;19.00;44.00;;;;;;6222043;28;20057;-71
2022/03/12 11:14:36;;;;;;;12.45;6.53;;;19.00;44.00;;;;;;6221786;28;20052;-70
2022/03/12 11:17:44;;;;;;;13.65;6.90;;;19.00;44.00;;;;;;6212591;28;20034;-70
2022/03/12 11:20:45;;;;;;;13.50;7.18;;;19.00;44.00;;;;;;6197426;28;20045;-70
2022/03/12 11:23:45;;;;;;;10.98;6.40;;;19.00;44.10;;;;;;6198273;28;20097;-70
2022/03/12 11:26:49;;;;;;;10.35;6.05;;;19.00;44.10;;;;;;6200127;28;20740;-70
2022/03/12 11:29:57;;;;;;;11.60;6.25;;;19.00;44.10;;;;;;6197272;28;20025;-70
2022/03/12 11:33:05;;;;;;;10.98;5.72;;;19.00;44.10;;;;;;6197196;28;20057;-71
2022/03/12 11:36:09;;;;;;;11.15;5.78;;;19.00;44.10;;;;;;6196684;28;20031;-70
2022/03/12 11:39:16;;;;;;;10.65;5.95;;;19.00;44.70;;;;;;6196634;28;20034;-70
2022/03/12 11:42:31;;;;;;;10.27;6.00;;;19.00;44.10;;;;;;6197042;28;20065;-70
2022/03/12 11:45:32;;;;;;;11.32;6.05;;;19.00;44.10;;;;;;6196945;28;20036;-70
2022/03/12 11:48:36;;;;;;;12.63;6.28;;;19.00;44.10;;;;;;6196661;28;20034;-70
2022/03/12 11:51:36;;;;;;;11.32;6.35;;;19.00;44.10;;;;;;6196538;28;20157;-70
2022/03/12 11:54:43;;;;;;;11.90;6.15;;;19.00;44.10;;;;;;6196227;28;20034;-72
2022/03/12 11:57:49;;;;;;;12.73;6.20;;;19.00;44.10;;;;;;6196047;28;20030;-70
2022/03/12 12:00:50;;;;;;;10.05;6.13;;;19.00;44.10;;;;;;6198878;28;20073;-70
2022/03/12 12:03:53;;;;;;;13.27;5.68;;;19.00;44.10;;;;;;6220581;28;20097;-70
2022/03/12 12:06:55;;;;;;;10.98;6.13;;;19.00;44.10;;;;;;6208563;28;20026;-70
2022/03/12 12:09:55;;;;;;;12.02;6.55;;;19.00;44.10;;;;;;6219346;28;20018;-70
2022/03/12 12:12:58;;;;;;;11.60;6.45;;;19.00;44.10;;;;;;6197533;28;20037;-70
2022/03/12 12:15:59;;;;;;;11.45;6.55;;;19.00;44.10;;;;;;6197469;28;20042;-70
2022/03/12 12:19:00;;;;;;;11.35;6.35;;;19.00;44.10;;;;;;6197298;28;20030;-70
2022/03/12 12:22:01;;;;;;;11.57;6.20;;;19.00;44.10;;;;;;6197687;28;20023;-70
2022/03/12 12:25:04;;;;;;;10.73;5.72;;;19.00;44.10;;;;;;6197173;28;20026;-70
2022/03/12 12:28:24;;;;;;;10.43;6.03;;;19.00;44.10;;;;;;6197317;28;20018;-70
2022/03/12 12:31:26;;;;;;;10.05;5.45;;;19.00;44.10;;;;;;6197688;28;20037;-70
2022/03/12 12:34:26;;;;;;;14.13;6.10;;;19.00;44.10;;;;;;6197619;28;20027;-70
2022/03/12 12:37:46;;;;;;;9.15;5.82;;;19.00;44.10;;;;;;6197832;28;20416;-70
2022/03/12 12:40:49;;;;;;;13.23;6.97;;;19.00;44.10;;;;;;6197276;28;20139;-70
2022/03/12 12:44:05;;;;;;;12.18;6.47;;;19.00;44.10;;;;;;6197436;28;20026;-70
2022/03/12 12:47:07;;;;;;;11.00;6.85;;;19.00;44.10;;;;;;6197403;28;20030;-70
2022/03/12 12:50:24;;;;;;;10.68;5.40;;;19.00;44.10;;;;;;6196271;28;20041;-70
2022/03/12 12:53:38;;;;;;;10.40;5.97;;;19.00;44.10;;;;;;6197257;28;20022;-70
2022/03/12 12:56:42;;;;;;;12.75;6.43;;;19.00;44.10;;;;;;6196904;28;20038;-70
2022/03/12 12:59:48;;;;;;;11.23;6.47;;;19.00;44.10;;;;;;6196823;28;20169;-70
2022/03/12 13:02:49;;;;;;;10.52;5.93;;;19.00;44.10;;;;;;6197325;28;20030;-70
2022/03/12 13:05:59;;;;;;;11.13;6.20;;;19.00;44.10;;;;;;6197087;28;20502;-70
2022/03/12 13:09:02;;;;;;;12.18;6.18;;;19.00;44.10;;;;;;6196847;28;20046;-70
2022/03/12 13:12:05;;;;;;;11.63;5.90;;;19.00;44.10;;;;;;6196715;28;20030;-70
2022/03/12 13:15:14;;;;;;;10.00;5.28;;;19.00;44.10;;;;;;6196424;28;20188;-70
2022/03/12 13:18:27;;;;;;;10.40;5.72;;;19.00;44.10;;;;;;6196631;28;20034;-70
2022/03/12 13:21:35;;;;;;;11.50;5.78;;;19.00;44.10;;;;;;6195994;28;20022;-70
2022/03/12 13:25:02;;;;;;;9.75;5.55;;;19.00;44.10;;;;;;6196119;28;20651;-70
2022/03/12 13:28:03;;;;;;;9.00;5.75;;;19.00;44.10;;;;;;6196847;28;20054;-70
2022/03/12 13:31:28;;;;;;;13.27;5.65;;;19.00;44.10;;;;;;6196213;28;20113;-70
2022/03/12 13:34:28;;;;;;;9.05;5.30;;;19.00;44.10;;;;;;6196074;28;20420;-70
2022/03/12 13:37:29;;;;;;;9.07;5.18;;;19.00;44.20;;;;;;6196294;28;20038;-70
2022/03/12 13:40:30;;;;;;;8.57;5.00;;;19.00;44.20;;;;;;6196184;28;20022;-70
2022/03/12 13:43:31;;;;;;;9.15;5.60;;;19.00;44.10;;;;;;6196128;28;20700;-70
2022/03/12 13:46:33;;;;;;;8.93;4.72;;;19.00;44.10;;;;;;6195919;28;20054;-70
2022/03/12 13:49:40;;;;;;;9.68;4.80;;;19.00;44.10;;;;;;6195866;28;20085;-70
2022/03/12 13:52:41;;;;;;;10.05;5.00;;;19.00;44.10;;;;;;6195670;28;20421;-70
2022/03/12 13:55:44;;;;;;;6.97;4.40;;;19.00;44.10;;;;;;6195766;28;20034;-70
2022/03/12 13:58:46;;;;;;;8.80;4.80;;;19.00;44.10;;;;;;6196227;28;20105;-70
2022/03/12 14:01:49;;;;;;;6.75;4.25;;;19.00;44.10;;;;;;6195221;28;20058;-70
2022/03/12 14:04:50;;;;;;;8.25;4.85;;;19.00;44.20;;;;;;6195655;28;20478;-70
2022/03/12 14:07:54;;;;;;;9.95;4.55;;;19.00;44.10;;;;;;6195837;28;20033;-70
2022/03/12 14:10:55;;;;;;;8.52;5.18;;;19.00;44.10;;;;;;6195458;28;20041;-70
2022/03/12 14:13:59;;;;;;;8.73;5.05;;;19.00;44.10;;;;;;6195466;28;20681;-70
2022/03/12 14:17:02;;;;;;;8.07;4.95;;;19.00;44.10;;;;;;6195500;28;20034;-71
2022/03/12 14:20:08;;;;;;;9.30;4.35;;;19.00;44.10;;;;;;6195685;28;20093;-70
2022/03/12 14:23:09;;;;;;;6.95;4.25;;;19.00;44.10;;;;;;6195571;28;20500;-70
2022/03/12 14:26:10;;;;;;;6.75;3.92;;;19.00;44.10;;;;;;6194976;28;20445;-70
2022/03/12 14:29:11;;;;;;;8.25;4.43;;;19.00;44.10;;;;;;6195690;28;20045;-70
2022/03/12 14:32:14;;;;;;;6.68;3.97;;;19.00;44.10;;;;;;6195370;28;20536;-70
2022/03/12 14:35:15;;;;;;;8.98;4.55;;;19.00;44.10;;;;;;6194552;28;20045;-70
2022/03/12 14:38:15;;;;;;;6.68;4.10;;;19.00;44.10;;;;;;6195303;28;20026;-70
2022/03/12 14:41:16;;;;;;;6.85;4.13;;;19.00;44.10;;;;;;6195479;28;20030;-70
2022/03/12 14:44:16;;;;;;;6.97;3.92;;;19.00;44.10;;;;;;6194839;28;20030;-70
2022/03/12 14:47:18;;;;;;;7.13;4.03;;;19.00;44.10;;;;;;6195066;28;20181;-70
2022/03/12 14:50:20;;;;;;;6.28;3.55;;;19.00;44.10;;;;;;6195241;28;20027;-70
2022/03/12 14:53:21;;;;;;;6.10;4.25;;;19.00;44.10;;;;;;6194962;28;20548;-70
2022/03/12 14:56:22;;;;;;;8.27;3.80;;;19.00;44.10;;;;;;6194890;28;20030;-70
2022/03/12 14:59:27;;;;;;;5.53;3.85;;;19.00;44.10;;;;;;6195180;28;20069;-70
2022/03/12 15:02:29;;;;;;;5.17;3.57;;;19.00;44.10;;;;;;6195257;28;20110;-70
2022/03/12 15:05:31;;;;;;;5.70;3.67;;;19.00;44.10;;;;;;6194990;28;20500;-70
2022/03/12 15:08:36;;;;;;;5.60;3.80;;;19.00;44.10;;;;;;6194680;28;20417;-70
2022/03/12 15:11:37;;;;;;;5.90;3.85;;;19.00;44.10;;;;;;6195146;28;20077;-70
2022/03/12 15:14:38;;;;;;;6.53;4.15;;;19.00;44.10;;;;;;6197814;28;20677;-70
2022/03/12 15:17:39;;;;;;;6.53;4.07;;;19.00;44.10;;;;;;6199129;28;20026;-70
2022/03/12 15:20:45;;;;;;;8.52;3.90;;;19.00;44.10;;;;;;6199078;28;20081;-70
2022/03/12 15:23:46;;;;;;;6.22;3.85;;;19.00;44.10;;;;;;6199155;28;20685;-70
2022/03/12 15:27:01;;;;;;;7.72;3.90;;;19.00;44.10;;;;;;6199024;28;20054;-70
2022/03/12 15:30:06;;;;;;;6.18;3.63;;;19.00;44.10;;;;;;6199378;28;20524;-70
2022/03/12 15:33:06;;;;;;;;;;;19.00;44.10;;;;;;6192476;28;20491;-70
2022/03/12 15:36:13;;;;;;;6.07;3.40;;;19.00;44.10;;;;;;6192739;28;19914;-71
2022/03/12 15:39:14;;;;;;;5.45;3.60;;;19.00;44.10;;;;;;6197128;28;20521;-70
2022/03/12 15:42:14;;;;;;;6.00;3.78;;;19.00;44.10;;;;;;6196498;28;20025;-70
2022/03/12 15:45:16;;;;;;;5.15;3.30;;;19.00;44.10;;;;;;6196795;28;20058;-71